Wellsburg, Iowa
Current Conditions -  °F | °C
As of 1:55 AM on Monday 22 Dec 2014 (Local Time) from KIFA Reporting Station
Drizzle Drizzle  
Wind Chill: 30°   Ceiling: 400
Heat Index: 38°   Visibility: 2.5mi
Dew Point: 37°   Wind: 15mph
Humidity: 96%   Direction: 140°SE
Pressure: 29.72"   Gusts: NA
Location:  42.46°N, 92.94°W
Report Text: KIFA 220755Z AUTO 14013KT 2 1/2SM DZ OVC004 04/03 A2972 RMK AO2 T00350029
Loading
Personal Weather Stations






























Interactive Weather Map New forecast layout! Learn more

10-Day Weather Forecast

Advertisements
Track Severe Weather on mobile